Time;durP1;ratioP1;P1;durP2;ratioP2;P2;SDS_P1;SDS_P2;PMS_P1;PMS_P2;Temp;Humidity;BMP_temperature;BMP_pressure;BME280_temperature;BME280_humidity;BME280_pressure;Samples;Min_cycle;Max_cycle;Signal;HPM_P1;HPM_P2
2022/03/30 00:01:07;;;;;;;;;;;;;;;22.73;24.41;97243.16;4955250;29;1021;-79
2022/03/30 00:03:33;;;;;;;;;;;;;;;22.73;24.63;97237.47;4954858;29;1120;-78
2022/03/30 00:05:58;;;;;;;;;;;;;;;22.58;24.86;97242.19;4955398;29;1000;-79
2022/03/30 00:08:23;;;;;;;;;;;;;;;22.55;24.73;97238.25;4954985;28;984;-79
2022/03/30 00:10:49;;;;;;;;;;;;;;;22.60;24.90;97236.84;4958566;29;995;-77
2022/03/30 00:13:15;;;;;;;;;;;;;;;22.51;25.06;97237.59;4958963;29;1918;-78
2022/03/30 00:15:41;;;;;;;;;;;;;;;21.84;25.92;97229.81;4958980;29;1148;-78
2022/03/30 00:18:06;;;;;;;;;;;;;;;21.98;25.51;97234.13;4942968;29;1149;-79
2022/03/30 00:20:31;;;;;;;;;;;;;;;22.47;25.07;97233.34;4958989;29;995;-79
2022/03/30 00:22:57;;;;;;;;;;;;;;;22.30;24.97;97236.47;4958779;29;1304;-77
2022/03/30 00:25:22;;;;;;;;;;;;;;;22.55;24.86;97232.59;4972993;28;933;-79
2022/03/30 00:27:48;;;;;;;;;;;;;;;22.74;24.74;97224.91;4978393;28;989;-78
2022/03/30 00:30:15;;;;;;;;;;;;;;;22.67;24.80;97225.19;4978104;28;971;-79
2022/03/30 00:32:40;;;;;;;;;;;;;;;22.03;25.69;97225.03;4978114;28;1969;-78
2022/03/30 00:35:07;;;;;;;;;;;;;;;23.02;24.26;97219.25;5008249;28;1339;-78
2022/03/30 00:37:33;;;;;;;;;;;;;;;22.93;24.29;97222.06;5039134;28;957;-79
2022/03/30 00:39:58;;;;;;;;;;;;;;;22.65;24.48;97224.88;5038899;28;938;-78
2022/03/30 00:42:24;;;;;;;;;;;;;;;22.71;24.69;97225.03;5039560;28;1019;-76
2022/03/30 00:44:50;;;;;;;;;;;;;;;22.55;24.86;97220.47;5039080;28;873;-78
2022/03/30 00:47:16;;;;;;;;;;;;;;;22.62;24.82;97214.47;5039288;28;924;-79
2022/03/30 00:49:41;;;;;;;;;;;;;;;22.59;24.92;97216.22;5017922;28;1035;-79
2022/03/30 00:52:07;;;;;;;;;;;;;;;22.77;24.60;97214.63;5019271;28;1920;-78
2022/03/30 00:54:33;;;;;;;;;;;;;;;22.57;24.67;97213.03;5018935;28;1022;-78
2022/03/30 00:56:58;;;;;;;;;;;;;;;21.98;25.59;97214.31;5019268;28;891;-79
2022/03/30 00:59:24;;;;;;;;;;;;;;;22.38;25.16;97204.97;5016583;28;1099;-79
2022/03/30 01:01:49;;;;;;;;;;;;;;;22.34;25.27;97205.16;5000290;28;1060;-79
2022/03/30 01:04:15;;;;;;;;;;;;;;;22.11;25.43;97209.31;4996768;28;1842;-79
2022/03/30 01:06:40;;;;;;;;;;;;;;;22.75;24.52;97206.63;4977312;28;1088;-78
2022/03/30 01:09:05;;;;;;;;;;;;;;;22.99;24.40;97214.50;4977177;28;1043;-79
2022/03/30 01:11:31;;;;;;;;;;;;;;;22.75;24.45;97212.28;4977322;28;1038;-79
2022/03/30 01:13:56;;;;;;;;;;;;;;;22.54;25.10;97201.88;4977110;28;1992;-78
2022/03/30 01:16:23;;;;;;;;;;;;;;;21.99;25.59;97196.03;4977307;28;1105;-77
2022/03/30 01:18:49;;;;;;;;;;;;;;;22.42;24.91;97199.94;4976972;28;1192;-79
2022/03/30 01:21:15;;;;;;;;;;;;;;;22.80;24.41;97191.81;4956383;28;1023;-77
2022/03/30 01:23:41;;;;;;;;;;;;;;;22.72;24.74;97199.03;4957410;29;1110;-78
2022/03/30 01:26:07;;;;;;;;;;;;;;;22.66;24.66;97194.47;4958131;29;936;-76
2022/03/30 01:28:32;;;;;;;;;;;;;;;22.61;24.62;97196.66;4957649;29;922;-78
2022/03/30 01:33:45;;;;;;;;;;;;;;;22.30;25.32;97188.28;4938612;29;1973;-79
2022/03/30 01:36:11;;;;;;;;;;;;;;;22.84;24.40;97192.41;4972830;28;936;-79
2022/03/30 01:38:37;;;;;;;;;;;;;;;22.75;24.66;97189.59;4881477;29;1267;-79
2022/03/30 01:41:02;;;;;;;;;;;;;;;22.15;25.63;97192.97;4881828;29;1019;-77
2022/03/30 01:43:30;;;;;;;;;;;;;;;22.43;25.36;97184.50;4885929;29;1107;-79
2022/03/30 01:45:57;;;;;;;;;;;;;;;22.69;24.67;97196.34;4900715;29;943;-79
2022/03/30 01:48:22;;;;;;;;;;;;;;;22.37;25.13;97192.84;4900628;29;1054;-79
2022/03/30 01:50:48;;;;;;;;;;;;;;;22.92;24.38;97203.50;4900550;29;1101;-79
2022/03/30 01:53:14;;;;;;;;;;;;;;;22.99;24.16;97192.59;4880971;29;1982;-78
2022/03/30 01:55:39;;;;;;;;;;;;;;;23.07;23.98;97193.06;4881241;29;1052;-79
2022/03/30 01:58:05;;;;;;;;;;;;;;;22.88;24.22;97195.13;4890704;29;1001;-79
2022/03/30 02:00:30;;;;;;;;;;;;;;;22.76;24.54;97190.38;4919311;29;1091;-78
2022/03/30 02:02:56;;;;;;;;;;;;;;;22.78;24.47;97185.00;4919031;29;937;-76
2022/03/30 02:05:21;;;;;;;;;;;;;;;22.73;24.47;97192.09;4919191;29;1140;-77
2022/03/30 02:07:47;;;;;;;;;;;;;;;22.59;25.01;97192.75;4918950;29;1047;-80
2022/03/30 02:10:12;;;;;;;;;;;;;;;22.49;24.96;97194.00;4961776;28;932;-79
2022/03/30 02:12:38;;;;;;;;;;;;;;;22.48;24.81;97198.06;4976278;28;1906;-78
2022/03/30 02:15:04;;;;;;;;;;;;;;;22.53;24.86;97200.28;4976298;28;1062;-79
2022/03/30 02:17:29;;;;;;;;;;;;;;;22.32;25.40;97202.75;4937621;29;1003;-78
2022/03/30 02:19:55;;;;;;;;;;;;;;;22.21;25.54;97202.44;4937641;29;1168;-79
2022/03/30 02:22:22;;;;;;;;;;;;;;;22.18;25.62;97206.22;4937997;29;966;-80
2022/03/30 02:24:50;;;;;;;;;;;;;;;22.56;25.09;97199.34;4937407;29;945;-79
2022/03/30 02:27:16;;;;;;;;;;;;;;;22.39;25.18;97200.91;4937749;29;1030;-78
2022/03/30 02:29:41;;;;;;;;;;;;;;;22.83;24.50;97205.03;4943337;28;1018;-78
2022/03/30 02:32:07;;;;;;;;;;;;;;;21.99;25.54;97201.72;4995319;28;1919;-76
2022/03/30 02:34:32;;;;;;;;;;;;;;;23.14;24.26;97198.41;4995277;28;1035;-78
2022/03/30 02:36:58;;;;;;;;;;;;;;;22.66;24.62;97203.78;4995451;28;1005;-77
2022/03/30 02:39:23;;;;;;;;;;;;;;;22.74;24.57;97207.06;4995538;28;965;-80
2022/03/30 02:41:49;;;;;;;;;;;;;;;22.69;24.76;97202.03;4995403;28;1027;-79
2022/03/30 02:44:14;;;;;;;;;;;;;;;22.88;24.28;97204.44;4994644;28;1055;-78
2022/03/30 02:46:40;;;;;;;;;;;;;;;22.77;24.32;97208.97;4995302;28;1062;-79
2022/03/30 02:49:05;;;;;;;;;;;;;;;22.65;24.63;97207.88;4955957;29;1217;-79
2022/03/30 02:51:31;;;;;;;;;;;;;;;22.64;24.82;97206.28;4956480;29;1095;-79
2022/03/30 02:53:56;;;;;;;;;;;;;;;22.60;24.89;97217.78;4957979;28;1910;-79
2022/03/30 02:56:22;;;;;;;;;;;;;;;22.63;24.85;97210.38;4975774;28;1119;-78
2022/03/30 02:58:47;;;;;;;;;;;;;;;22.18;25.50;97209.03;4975792;28;1021;-78
2022/03/30 03:01:13;;;;;;;;;;;;;;;21.97;25.95;97221.22;4975767;28;1134;-79
2022/03/30 03:03:40;;;;;;;;;;;;;;;22.18;25.59;97220.38;4975189;28;982;-78
2022/03/30 03:06:06;;;;;;;;;;;;;;;21.95;25.90;97218.06;4975761;28;979;-79
2022/03/30 03:08:31;;;;;;;;;;;;;;;22.71;24.88;97211.66;4975071;28;1015;-78
2022/03/30 03:10:57;;;;;;;;;;;;;;;22.27;25.47;97228.88;4974925;28;949;-78
2022/03/30 03:13:23;;;;;;;;;;;;;;;22.49;24.93;97222.34;4958415;28;1903;-79
2022/03/30 03:15:48;;;;;;;;;;;;;;;22.58;24.95;97223.13;4958931;28;1083;-79
2022/03/30 03:18:13;;;;;;;;;;;;;;;22.36;25.35;97222.47;4974999;28;1047;-79
2022/03/30 03:20:42;;;;;;;;;;;;;;;22.70;24.75;97227.09;4965302;28;1001;-79
2022/03/30 03:23:08;;;;;;;;;;;;;;;23.02;24.33;97224.91;4936604;29;1015;-79
2022/03/30 03:25:33;;;;;;;;;;;;;;;22.90;24.40;97228.69;4936458;29;1062;-80
2022/03/30 03:28:00;;;;;;;;;;;;;;;22.73;24.58;97228.19;4936410;29;1023;-79
2022/03/30 03:30:25;;;;;;;;;;;;;;;22.58;24.90;97225.16;4936551;29;1029;-77
2022/03/30 03:32:51;;;;;;;;;;;;;;;22.59;25.03;97226.78;4936595;29;1907;-78
2022/03/30 03:35:16;;;;;;;;;;;;;;;22.60;24.89;97236.84;4936647;29;990;-78
2022/03/30 03:37:42;;;;;;;;;;;;;;;22.58;24.99;97230.84;4936623;29;1008;-80
2022/03/30 03:40:08;;;;;;;;;;;;;;;22.57;25.06;97234.94;4936612;29;1057;-78
2022/03/30 03:42:34;;;;;;;;;;;;;;;22.27;25.22;97228.09;4936282;29;992;-78
2022/03/30 03:44:59;;;;;;;;;;;;;;;22.26;25.42;97238.66;4935338;29;1042;-78
2022/03/30 03:47:25;;;;;;;;;;;;;;;22.30;25.29;97236.47;4920848;29;1084;-80
2022/03/30 03:49:50;;;;;;;;;;;;;;;22.47;25.18;97231.28;4935870;29;1064;-80
2022/03/30 03:52:16;;;;;;;;;;;;;;;22.42;25.38;97242.47;4936244;29;1915;-79
2022/03/30 03:54:41;;;;;;;;;;;;;;;22.61;25.10;97241.25;4950096;29;981;-78
2022/03/30 03:57:07;;;;;;;;;;;;;;;22.54;25.10;97241.56;4960793;28;811;-79
2022/03/30 03:59:32;;;;;;;;;;;;;;;22.59;25.10;97241.72;5013511;28;911;-78
2022/03/30 04:01:58;;;;;;;;;;;;;;;22.80;24.58;97245.69;5013506;28;732;-79
2022/03/30 04:04:24;;;;;;;;;;;;;;;21.99;25.83;97247.03;5013818;28;810;-79
2022/03/30 04:06:49;;;;;;;;;;;;;;;22.68;24.93;97252.28;4969233;28;1820;-78
2022/03/30 04:09:15;;;;;;;;;;;;;;;22.86;24.46;97257.97;4954762;29;1674;-79
2022/03/30 04:11:40;;;;;;;;;;;;;;;22.83;24.65;97250.41;4955370;29;1028;-79
2022/03/30 04:14:05;;;;;;;;;;;;;;;22.74;24.81;97261.75;4954966;29;2018;-78
2022/03/30 04:16:31;;;;;;;;;;;;;;;22.59;24.76;97260.78;4954553;29;1610;-79
2022/03/30 04:18:56;;;;;;;;;;;;;;;22.59;24.89;97255.13;4954855;29;1627;-78
2022/03/30 04:21:22;;;;;;;;;;;;;;;22.41;25.03;97260.75;4969378;28;981;-78
2022/03/30 04:23:47;;;;;;;;;;;;;;;22.28;25.51;97267.31;4974284;28;1017;-78
2022/03/30 04:26:13;;;;;;;;;;;;;;;22.60;25.18;97262.38;4974269;28;1062;-79
2022/03/30 04:28:41;;;;;;;;;;;;;;;22.22;25.47;97259.88;4973997;28;1033;-78
2022/03/30 04:31:12;;;;;;;;;;;;;;;22.01;25.90;97250.19;4974637;28;1021;-78
2022/03/30 04:33:38;;;;;;;;;;;;;;;22.44;25.31;97254.16;4973419;28;1993;-78
2022/03/30 04:36:03;;;;;;;;;;;;;;;22.83;24.80;97253.25;4974386;28;853;-79
2022/03/30 04:38:29;;;;;;;;;;;;;;;22.49;25.39;97256.34;4991206;28;1048;-79
2022/03/30 04:40:55;;;;;;;;;;;;;;;22.73;24.77;97260.16;4996481;28;956;-79
2022/03/30 04:43:20;;;;;;;;;;;;;;;22.33;25.65;97265.94;4995153;28;1720;-79
2022/03/30 04:45:46;;;;;;;;;;;;;;;22.92;24.66;97260.22;4996216;28;1624;-78
2022/03/30 04:48:11;;;;;;;;;;;;;;;22.82;24.46;97259.41;4993651;28;1245;-79
2022/03/30 04:50:36;;;;;;;;;;;;;;;22.67;24.61;97258.44;5008004;28;1492;-78
2022/03/30 04:53:02;;;;;;;;;;;;;;;22.45;25.21;97255.72;5012015;28;1910;-76
2022/03/30 04:55:27;;;;;;;;;;;;;;;22.74;24.85;97261.75;5017252;28;929;-79
2022/03/30 04:57:53;;;;;;;;;;;;;;;22.64;24.96;97254.50;5018926;28;1681;-77
2022/03/30 05:00:18;;;;;;;;;;;;;;;22.72;24.94;97252.91;5019050;28;882;-80
2022/03/30 05:02:44;;;;;;;;;;;;;;;22.26;25.53;97255.66;5027815;28;991;-78
2022/03/30 05:05:10;;;;;;;;;;;;;;;22.41;25.36;97255.06;5038765;28;1072;-79
2022/03/30 05:07:36;;;;;;;;;;;;;;;22.53;25.25;97260.59;5038669;28;914;-79
2022/03/30 05:10:01;;;;;;;;;;;;;;;22.21;25.83;97258.31;5038483;28;884;-78
2022/03/30 05:12:27;;;;;;;;;;;;;;;22.64;24.82;97257.34;4999682;28;1907;-79
2022/03/30 05:14:52;;;;;;;;;;;;;;;22.63;25.15;97267.06;5018894;28;1648;-78
2022/03/30 05:17:18;;;;;;;;;;;;;;;22.60;24.99;97268.03;5019108;28;927;-79
2022/03/30 05:19:46;;;;;;;;;;;;;;;22.62;24.88;97271.19;4983933;28;1722;-77
2022/03/30 05:22:11;;;;;;;;;;;;;;;22.28;25.35;97270.16;5019282;28;974;-78
2022/03/30 05:24:37;;;;;;;;;;;;;;;22.10;25.79;97264.38;5018497;28;940;-78
2022/03/30 05:27:02;;;;;;;;;;;;;;;22.82;24.88;97268.69;5018904;28;971;-79
2022/03/30 05:29:28;;;;;;;;;;;;;;;22.81;24.90;97269.16;5018257;28;909;-80
2022/03/30 05:31:53;;;;;;;;;;;;;;;22.76;24.65;97262.06;5024909;28;1620;-78
2022/03/30 05:34:19;;;;;;;;;;;;;;;22.73;24.67;97268.66;5037921;28;1906;-79
2022/03/30 05:36:44;;;;;;;;;;;;;;;22.76;24.67;97269.78;5022369;28;1706;-78
2022/03/30 05:39:10;;;;;;;;;;;;;;;22.59;24.90;97270.09;5018132;28;1122;-79
2022/03/30 05:41:35;;;;;;;;;;;;;;;22.63;25.08;97272.75;5017359;28;1445;-78
2022/03/30 05:44:01;;;;;;;;;;;;;;;22.48;25.38;97278.22;5018284;28;958;-74
2022/03/30 05:46:26;;;;;;;;;;;;;;;22.59;25.10;97272.13;5018604;28;1709;-79
2022/03/30 05:48:52;;;;;;;;;;;;;;;22.53;24.94;97279.66;5018363;28;897;-79
2022/03/30 05:51:18;;;;;;;;;;;;;;;22.06;25.98;97275.84;5018591;28;1269;-78
2022/03/30 05:53:44;;;;;;;;;;;;;;;22.14;25.98;97276.41;5018200;28;1981;-80
2022/03/30 05:56:09;;;;;;;;;;;;;;;22.29;25.45;97271.72;5018294;28;990;-79
2022/03/30 05:58:35;;;;;;;;;;;;;;;22.58;25.09;97277.00;5017815;28;1690;-79
2022/03/30 06:01:00;;;;;;;;;;;;;;;22.60;25.10;97270.88;5018023;28;885;-79
2022/03/30 06:03:26;;;;;;;;;;;;;;;22.54;25.04;97269.91;4976157;28;1184;-79
2022/03/30 06:05:51;;;;;;;;;;;;;;;22.82;24.77;97276.41;4976793;28;942;-79
2022/03/30 06:08:17;;;;;;;;;;;;;;;22.76;24.78;97270.59;4975307;28;1007;-78
2022/03/30 06:10:42;;;;;;;;;;;;;;;22.95;24.47;97270.63;4976216;28;984;-78
2022/03/30 06:13:08;;;;;;;;;;;;;;;22.96;24.42;97277.88;4976198;28;1989;-79
2022/03/30 06:15:33;;;;;;;;;;;;;;;22.73;25.01;97276.41;4976298;28;983;-79
2022/03/30 06:17:59;;;;;;;;;;;;;;;22.61;24.98;97264.72;4937458;29;1012;-78
2022/03/30 06:20:25;;;;;;;;;;;;;;;22.53;25.24;97268.31;4899884;29;1034;-78
2022/03/30 06:22:53;;;;;;;;;;;;;;;22.58;25.15;97270.53;4899637;29;977;-79
2022/03/30 06:25:20;;;;;;;;;;;;;;;22.68;25.01;97269.28;4899753;29;977;-78
2022/03/30 06:27:45;;;;;;;;;;;;;;;22.48;25.39;97277.44;4889546;29;1475;-77
2022/03/30 06:30:11;;;;;;;;;;;;;;;22.56;25.05;97284.41;4881005;29;947;-79
2022/03/30 06:32:37;;;;;;;;;;;;;;;22.36;25.70;97282.75;4881033;29;1915;-79
2022/03/30 06:35:03;;;;;;;;;;;;;;;22.55;25.37;97294.97;4909635;29;1856;-77
2022/03/30 06:37:28;;;;;;;;;;;;;;;22.69;24.89;97293.59;4934092;29;1760;-79
2022/03/30 06:39:54;;;;;;;;;;;;;;;22.46;25.30;97294.91;4936879;29;1271;-77
2022/03/30 06:42:19;;;;;;;;;;;;;;;22.55;25.52;97299.84;4937849;29;1762;-78
2022/03/30 06:44:45;;;;;;;;;;;;;;;23.01;24.59;97297.13;4937139;29;1081;-79
2022/03/30 06:47:10;;;;;;;;;;;;;;;22.56;25.24;97301.41;4936422;29;1469;-77
2022/03/30 06:49:37;;;;;;;;;;;;;;;22.74;25.11;97295.78;4976243;28;1071;-79
2022/03/30 06:52:03;;;;;;;;;;;;;;;22.96;24.81;97297.75;5005445;28;989;-78
2022/03/30 06:54:29;;;;;;;;;;;;;;;22.86;24.56;97299.75;5014538;28;1915;-78
2022/03/30 06:56:54;;;;;;;;;;;;;;;22.67;24.95;97307.41;5014496;28;1007;-78
2022/03/30 06:59:20;;;;;;;;;;;;;;;22.53;25.23;97302.34;5014501;28;1104;-77
2022/03/30 07:01:45;;;;;;;;;;;;;;;22.61;25.03;97303.63;4986878;28;1621;-78
2022/03/30 07:04:11;;;;;;;;;;;;;;;22.66;25.17;97300.19;4975468;28;1025;-78
2022/03/30 07:06:36;;;;;;;;;;;;;;;22.21;25.88;97298.78;4975252;28;945;-80
2022/03/30 07:11:46;;;;;;;;;;;;;;;22.04;26.29;97297.41;4975417;28;1032;-78
2022/03/30 07:14:11;;;;;;;;;;;;;;;22.52;25.58;97304.38;4988538;28;1988;-79
2022/03/30 07:16:37;;;;;;;;;;;;;;;22.68;25.11;97303.31;4994263;28;1003;-79
2022/03/30 07:19:02;;;;;;;;;;;;;;;22.52;25.35;97300.75;4993697;28;977;-77
2022/03/30 07:21:27;;;;;;;;;;;;;;;22.14;26.10;97304.72;4994738;28;1008;-79
2022/03/30 07:23:53;;;;;;;;;;;;;;;22.52;25.38;97297.94;5013179;28;1012;-78
2022/03/30 07:26:19;;;;;;;;;;;;;;;22.74;25.03;97295.78;4975108;28;987;-78
2022/03/30 07:28:45;;;;;;;;;;;;;;;22.77;24.90;97297.69;4974736;28;1461;-77
2022/03/30 07:31:10;;;;;;;;;;;;;;;22.74;25.08;97298.63;4975186;28;985;-79
2022/03/30 07:33:36;;;;;;;;;;;;;;;22.73;25.10;97299.88;4974701;28;1906;-78
2022/03/30 07:36:01;;;;;;;;;;;;;;;22.49;25.35;97299.66;4974874;28;1498;-76
2022/03/30 07:38:27;;;;;;;;;;;;;;;22.58;25.06;97302.50;4974770;28;932;-79
2022/03/30 07:40:54;;;;;;;;;;;;;;;22.50;25.14;97300.47;4974842;28;1046;-74
2022/03/30 07:43:19;;;;;;;;;;;;;;;22.79;24.88;97302.88;4974465;28;1025;-73
2022/03/30 07:45:45;;;;;;;;;;;;;;;22.76;25.07;97298.94;4974184;28;1619;-74
2022/03/30 07:48:12;;;;;;;;;;;;;;;22.62;25.55;97300.31;4974251;28;1493;-74
2022/03/30 07:50:38;;;;;;;;;;;;;;;22.72;25.21;97298.28;4942343;28;1016;-77
2022/03/30 07:53:03;;;;;;;;;;;;;;;22.72;25.11;97298.28;4936357;29;1896;-79
2022/03/30 07:55:29;;;;;;;;;;;;;;;22.56;24.92;97284.41;4936094;29;1023;-77
2022/03/30 07:57:55;;;;;;;;;;;;;;;22.42;25.13;97297.13;4965382;28;1066;-77
2022/03/30 08:00:21;;;;;;;;;;;;;;;22.39;25.18;97305.78;4945215;28;1506;-78
2022/03/30 08:02:46;;;;;;;;;;;;;;;22.44;24.49;97310.84;4936473;29;935;-78
2022/03/30 08:05:13;;;;;;;;;;;;;;;22.34;24.62;97307.19;4936296;29;999;-79
2022/03/30 08:07:49;;;;;;;;;;;;;;;22.28;24.93;97315.50;4936506;29;996;-78
2022/03/30 08:10:14;;;;;;;;;;;;;;;22.34;24.49;97302.28;4932177;29;1536;-79
2022/03/30 08:12:40;;;;;;;;;;;;;;;22.26;24.55;97301.00;4935915;29;1902;-78
2022/03/30 08:15:06;;;;;;;;;;;;;;;22.26;24.43;97308.72;4936073;29;1021;-78
2022/03/30 08:17:31;;;;;;;;;;;;;;;22.14;24.27;97304.72;4897990;29;977;-78
2022/03/30 08:19:59;;;;;;;;;;;;;;;22.12;24.30;97315.72;4898174;29;1040;-78
2022/03/30 08:22:28;;;;;;;;;;;;;;;22.01;24.26;97307.63;4910658;29;1582;-78
2022/03/30 08:25:00;;;;;;;;;;;;;;;22.04;24.47;97306.69;4900533;29;1048;-77
2022/03/30 08:27:26;;;;;;;;;;;;;;;21.96;24.50;97313.09;4898046;29;1081;-77
2022/03/30 08:29:52;;;;;;;;;;;;;;;21.99;24.11;97309.34;4897862;29;1488;-78
2022/03/30 08:32:17;;;;;;;;;;;;;;;21.97;24.10;97294.88;4953232;29;1982;-77
2022/03/30 08:34:43;;;;;;;;;;;;;;;22.02;23.79;97299.91;4958707;29;1110;-78
2022/03/30 08:37:09;;;;;;;;;;;;;;;21.99;23.94;97304.47;4939614;29;1049;-77
2022/03/30 08:39:35;;;;;;;;;;;;;;;22.02;23.73;97308.41;4923185;29;1000;-78
2022/03/30 08:42:02;;;;;;;;;;;;;;;22.02;23.74;97309.22;4939614;29;947;-78
2022/03/30 08:44:28;;;;;;;;;;;;;;;21.93;23.60;97295.00;4939226;29;1491;-79
2022/03/30 08:46:53;;;;;;;;;;;;;;;21.84;23.91;97301.41;4939179;29;1551;-78
2022/03/30 08:49:19;;;;;;;;;;;;;;;21.87;23.70;97294.03;4919789;29;1082;-77
2022/03/30 08:51:47;;;;;;;;;;;;;;;21.75;23.81;97295.69;4904554;29;994;-76
2022/03/30 08:54:13;;;;;;;;;;;;;;;21.91;23.66;97291.03;4927381;29;1918;-79
2022/03/30 08:56:40;;;;;;;;;;;;;;;21.76;23.69;97285.94;4958767;29;1038;-78
2022/03/30 08:59:12;;;;;;;;;;;;;;;21.68;23.96;97281.81;4958416;29;976;-77
2022/03/30 09:01:39;;;;;;;;;;;;;;;21.88;23.39;97292.78;4959574;28;1412;-76
2022/03/30 09:04:08;;;;;;;;;;;;;;;21.69;23.74;97291.88;4958599;29;968;-78
2022/03/30 09:06:34;;;;;;;;;;;;;;;21.63;23.84;97282.41;4958785;29;1039;-78
2022/03/30 09:09:00;;;;;;;;;;;;;;;21.71;23.46;97280.91;4975024;28;1057;-77
2022/03/30 09:11:27;;;;;;;;;;;;;;;21.70;23.77;97281.34;4986021;28;1625;-78
2022/03/30 09:14:05;;;;;;;;;;;;;;;21.71;23.64;97282.91;4980614;28;1984;-77
2022/03/30 09:16:44;;;;;;;;;;;;;;;21.68;23.32;97264.81;4997253;28;1041;-77
2022/03/30 09:19:10;;;;;;;;;;;;;;;21.75;23.23;97284.34;4997042;28;1076;-77
2022/03/30 09:21:39;;;;;;;;;;;;;;;21.76;23.36;97274.63;4968890;28;1557;-77
2022/03/30 09:24:05;;;;;;;;;;;;;;;21.65;23.50;97271.41;4958123;29;1108;-77
2022/03/30 09:26:30;;;;;;;;;;;;;;;21.73;22.97;97269.09;4965833;28;963;-78
2022/03/30 09:28:55;;;;;;;;;;;;;;;21.74;23.15;97271.44;4977493;28;1047;-78
2022/03/30 09:31:21;;;;;;;;;;;;;;;21.63;23.33;97270.28;4981437;28;1599;-78
2022/03/30 09:33:46;;;;;;;;;;;;;;;21.61;23.46;97265.09;4996700;28;1987;-77
2022/03/30 09:36:30;;;;;;;;;;;;;;;21.64;23.13;97260.53;4994348;28;1537;-78
2022/03/30 09:38:56;;;;;;;;;;;;;;;21.65;23.35;97257.25;4996524;28;1672;-78
2022/03/30 09:41:21;;;;;;;;;;;;;;;21.59;23.43;97242.13;4976345;28;1017;-78
2022/03/30 09:43:47;;;;;;;;;;;;;;;21.60;23.45;97255.00;4976658;28;1148;-77
2022/03/30 09:46:13;;;;;;;;;;;;;;;21.60;23.33;97255.00;4977224;28;1573;-78
2022/03/30 09:48:40;;;;;;;;;;;;;;;21.55;23.47;97247.13;4976686;28;1090;-77
2022/03/30 09:51:06;;;;;;;;;;;;;;;21.66;23.24;97241.84;4977361;28;1184;-77
2022/03/30 09:53:32;;;;;;;;;;;;;;;21.52;23.21;97243.19;4976191;28;1906;-78
2022/03/30 09:55:58;;;;;;;;;;;;;;;21.61;23.19;97233.97;4938302;29;1009;-78
2022/03/30 09:58:25;;;;;;;;;;;;;;;21.52;23.37;97236.72;4937863;29;1257;-78
2022/03/30 10:01:10;;;;;;;;;;;;;;;21.48;23.39;97230.41;4938473;29;952;-77
2022/03/30 10:03:36;;;;;;;;;;;;;;;21.52;23.30;97219.75;4899892;29;1554;-78
2022/03/30 10:06:02;;;;;;;;;;;;;;;21.52;23.22;97223.38;4900721;29;935;-77
2022/03/30 10:08:27;;;;;;;;;;;;;;;21.64;23.15;97221.69;4900154;29;959;-76
2022/03/30 10:10:53;;;;;;;;;;;;;;;22.08;22.54;97210.25;4900382;29;1036;-78
2022/03/30 10:13:18;;;;;;;;;;;;;;;22.21;22.05;97219.44;4933170;29;1903;-77
2022/03/30 10:15:43;;;;;;;;;;;;;;;21.84;22.81;97210.78;4936826;29;2179;-77
2022/03/30 10:18:09;;;;;;;;;;;;;;;21.75;22.87;97222.06;4881312;29;1117;-79
2022/03/30 10:20:35;;;;;;;;;;;;;;;21.73;22.91;97218.91;4881298;29;1033;-78
2022/03/30 10:23:11;;;;;;;;;;;;;;;21.55;23.13;97215.97;4881364;29;1587;-77
2022/03/30 10:25:55;;;;;;;;;;;;;;;21.51;23.23;97218.19;4862283;29;967;-77
2022/03/30 10:28:26;;;;;;;;;;;;;;;21.51;23.33;97209.69;4862622;29;967;-78
2022/03/30 10:30:55;;;;;;;;;;;;;;;21.54;23.27;97205.91;4862608;29;1048;-78
2022/03/30 10:33:30;;;;;;;;;;;;;;;21.92;22.62;97202.00;4862285;29;1903;-78
2022/03/30 10:35:56;;;;;;;;;;;;;;;22.03;22.37;97197.47;4899745;29;1696;-77
2022/03/30 10:38:22;;;;;;;;;;;;;;;21.88;22.54;97184.38;4899566;29;1076;-78
2022/03/30 10:40:47;;;;;;;;;;;;;;;21.64;23.04;97190.56;4915739;29;1026;-76
2022/03/30 10:43:13;;;;;;;;;;;;;;;21.67;22.81;97203.78;4933459;29;1624;-79
2022/03/30 10:45:39;;;;;;;;;;;;;;;21.57;23.08;97199.34;4937444;29;1073;-78
2022/03/30 10:48:20;;;;;;;;;;;;;;;21.50;23.22;97193.94;4937475;29;1195;-76
2022/03/30 10:50:54;;;;;;;;;;;;;;;21.57;23.15;97193.69;4937287;29;1270;-78
2022/03/30 10:53:31;;;;;;;;;;;;;;;21.27;23.32;97193.16;4936725;29;1907;-79
2022/03/30 10:56:09;;;;;;;;;;;;;;;21.40;23.13;97192.31;4962149;28;1177;-77
2022/03/30 10:58:37;;;;;;;;;;;;;;;21.93;22.49;97187.38;4975400;28;1529;-78
2022/03/30 11:01:15;;;;;;;;;;;;;;;22.15;22.50;97190.13;4975800;28;1418;-79
2022/03/30 11:03:59;;;;;;;;;;;;;;;21.80;22.69;97178.97;4975474;28;1057;-77
2022/03/30 11:06:25;;;;;;;;;;;;;;;21.59;23.16;97172.13;4987177;28;1009;-79
2022/03/30 11:08:51;;;;;;;;;;;;;;;21.55;23.06;97179.19;5016780;28;1512;-77
2022/03/30 11:11:26;;;;;;;;;;;;;;;21.54;23.29;97172.72;5016619;28;1526;-79
2022/03/30 11:14:10;;;;;;;;;;;;;;;21.60;23.19;97181.41;5016756;28;1894;-77
2022/03/30 11:16:48;;;;;;;;;;;;;;;21.37;23.45;97179.09;5017008;28;1207;-78
2022/03/30 11:19:14;;;;;;;;;;;;;;;21.69;22.83;97161.63;5016477;28;1169;-78
2022/03/30 11:21:39;;;;;;;;;;;;;;;22.01;22.63;97171.66;5016222;28;1599;-77
2022/03/30 11:24:09;;;;;;;;;;;;;;;22.21;22.40;97176.91;5013569;28;1101;-77
2022/03/30 11:26:58;;;;;;;;;;;;;;;21.78;22.84;97158.06;5016958;28;916;-78
2022/03/30 11:29:47;;;;;;;;;;;;;;;21.61;23.11;97160.34;4936855;29;1078;-79
2022/03/30 11:32:18;;;;;;;;;;;;;;;21.53;23.18;97159.06;4917886;29;1136;-77
2022/03/30 11:34:44;;;;;;;;;;;;;;;21.63;22.82;97169.16;4918089;29;1891;-79
2022/03/30 11:37:10;;;;;;;;;;;;;;;21.55;23.27;97162.19;4933050;29;1503;-79
2022/03/30 11:39:35;;;;;;;;;;;;;;;21.61;22.98;97156.75;4936848;29;1070;-77
2022/03/30 11:42:01;;;;;;;;;;;;;;;21.63;23.17;97152.19;4936928;29;1036;-79
2022/03/30 11:47:13;;;;;;;;;;;;;;;21.95;22.50;97142.38;4898895;29;1520;-79
2022/03/30 11:50:11;;;;;;;;;;;;;;;22.13;22.32;97133.16;4898512;29;1061;-78
2022/03/30 11:52:36;;;;;;;;;;;;;;;21.74;23.02;97129.88;4898695;29;1903;-78
2022/03/30 11:55:02;;;;;;;;;;;;;;;21.66;23.20;97139.94;4898668;29;980;-79
2022/03/30 11:57:27;;;;;;;;;;;;;;;21.66;22.92;97148.44;4894814;29;1615;-78
2022/03/30 11:59:54;;;;;;;;;;;;;;;21.64;23.02;97131.09;4879893;29;971;-78
2022/03/30 12:02:20;;;;;;;;;;;;;;;21.54;23.02;97141.59;4890780;29;1685;-79
2022/03/30 12:04:45;;;;;;;;;;;;;;;21.49;23.32;97138.59;4898584;29;1481;-79
2022/03/30 12:07:19;;;;;;;;;;;;;;;21.61;23.14;97132.06;4934404;29;1020;-78
2022/03/30 12:09:48;;;;;;;;;;;;;;;22.04;22.33;97124.59;4939207;29;1655;-79
2022/03/30 12:12:35;;;;;;;;;;;;;;;22.18;22.29;97126.88;4959495;29;1681;-79
2022/03/30 12:15:11;;;;;;;;;;;;;;;21.96;22.69;97131.81;4940013;29;1047;-79
2022/03/30 12:17:36;;;;;;;;;;;;;;;21.64;22.91;97119.00;4912218;29;1611;-77
2022/03/30 12:20:03;;;;;;;;;;;;;;;21.63;22.99;97123.09;4902193;29;967;-79
2022/03/30 12:22:29;;;;;;;;;;;;;;;21.75;23.10;97114.47;4883519;29;1097;-79
2022/03/30 12:24:54;;;;;;;;;;;;;;;21.50;23.11;97121.16;4882983;29;1107;-79
2022/03/30 12:27:20;;;;;;;;;;;;;;;21.51;23.33;97121.94;4889555;29;1559;-79
2022/03/30 12:29:45;;;;;;;;;;;;;;;21.44;23.46;97116.56;4902004;29;1368;-77
2022/03/30 12:32:15;;;;;;;;;;;;;;;21.94;22.72;97114.53;4902333;29;1155;-79
2022/03/30 12:34:41;;;;;;;;;;;;;;;22.12;22.54;97117.41;4901498;29;1974;-78
2022/03/30 12:37:07;;;;;;;;;;;;;;;22.00;22.54;97118.31;4902430;29;1027;-79
2022/03/30 12:39:39;;;;;;;;;;;;;;;21.58;23.19;97121.66;4902077;29;958;-79
2022/03/30 12:42:12;;;;;;;;;;;;;;;21.59;23.10;97124.00;4901715;29;1599;-78
2022/03/30 12:44:41;;;;;;;;;;;;;;;21.30;23.37;97124.38;4883137;29;1022;-77
2022/03/30 12:47:16;;;;;;;;;;;;;;;21.40;23.46;97118.72;4918675;29;983;-78
2022/03/30 12:49:42;;;;;;;;;;;;;;;21.46;23.37;97126.16;4920693;29;1193;-80
2022/03/30 12:52:15;;;;;;;;;;;;;;;21.48;23.26;97134.97;4894857;29;1601;-79
2022/03/30 12:54:41;;;;;;;;;;;;;;;21.94;22.83;97128.69;4901588;29;1984;-77
2022/03/30 12:57:06;;;;;;;;;;;;;;;22.05;22.53;97129.00;4900831;29;1655;-77
2022/03/30 12:59:32;;;;;;;;;;;;;;;21.66;22.92;97116.47;4895060;29;1540;-79
2022/03/30 13:01:58;;;;;;;;;;;;;;;21.53;23.02;97111.72;4886646;29;1176;-77
2022/03/30 13:04:28;;;;;;;;;;;;;;;21.71;22.76;97121.53;4901436;29;1083;-79
2022/03/30 13:07:09;;;;;;;;;;;;;;;21.59;23.13;97112.69;4901604;29;964;-79